createdAt,value
2019-04-28T00:01:55.901Z,81.76
2019-04-28T00:04:26.515Z,81.74
2019-04-28T00:06:57.606Z,81.84
2019-04-28T00:09:31.248Z,81.58
2019-04-28T00:12:02.510Z,81.78
2019-04-28T00:14:33.136Z,81.83
2019-04-28T00:17:04.425Z,81.98
2019-04-28T00:19:34.975Z,81.93
2019-04-28T00:22:27.781Z,82.00
2019-04-28T00:25:21.469Z,81.84
2019-04-28T00:27:52.767Z,81.87
2019-04-28T00:30:26.895Z,81.74
2019-04-28T00:32:57.755Z,81.67
2019-04-28T00:35:28.582Z,81.91
2019-04-28T00:37:59.395Z,82.31
2019-04-28T00:40:31.634Z,82.37
2019-04-28T00:43:03.433Z,82.59
2019-04-28T00:45:33.940Z,82.30
2019-04-28T00:48:04.720Z,82.39
2019-04-28T00:50:35.372Z,82.27
2019-04-28T00:53:06.088Z,82.59
2019-04-28T00:55:36.835Z,82.46
2019-04-28T00:58:07.692Z,82.00
2019-04-28T01:00:41.416Z,81.62
2019-04-28T01:03:12.222Z,81.53
2019-04-28T01:05:42.742Z,81.31
2019-04-28T01:08:13.174Z,81.00
2019-04-28T01:10:43.534Z,80.58
2019-04-28T01:13:13.853Z,81.16
2019-04-28T01:16:02.309Z,81.62
2019-04-28T01:19:03.933Z,81.90
2019-04-28T01:21:51.977Z,82.08
2019-04-28T01:24:23.280Z,82.09
2019-04-28T01:26:55.433Z,81.88
2019-04-28T01:29:25.850Z,82.00
2019-04-28T01:32:15.442Z,82.11
2019-04-28T01:34:45.851Z,82.69
2019-04-28T01:37:16.308Z,82.40
2019-04-28T01:39:46.879Z,82.56
2019-04-28T01:42:17.209Z,82.39
2019-04-28T01:44:49.504Z,82.48
2019-04-28T01:47:20.531Z,82.43
2019-04-28T01:49:51.041Z,82.13
2019-04-28T01:52:21.498Z,81.74
2019-04-28T01:54:52.037Z,82.21
2019-04-28T01:57:22.577Z,83.20
2019-04-28T01:59:53.235Z,83.52
2019-04-28T02:02:24.207Z,83.48
2019-04-28T02:04:54.850Z,83.11
2019-04-28T02:07:25.714Z,82.96
2019-04-28T02:09:56.433Z,82.76
2019-04-28T02:12:27.143Z,82.71
2019-04-28T02:15:00.911Z,82.41
2019-04-28T02:17:31.617Z,81.92
2019-04-28T02:20:02.211Z,81.49
2019-04-28T02:22:44.457Z,81.89
2019-04-28T02:25:16.916Z,81.01
2019-04-28T02:27:47.516Z,81.23
2019-04-28T02:30:20.281Z,80.69
2019-04-28T02:32:51.902Z,81.48
2019-04-28T02:35:22.890Z,81.91
2019-04-28T02:37:54.215Z,82.10
2019-04-28T02:40:24.916Z,81.81
2019-04-28T02:42:55.556Z,81.15
2019-04-28T02:45:26.368Z,79.71
2019-04-28T02:48:01.125Z,79.35
2019-04-28T02:50:41.788Z,79.49
2019-04-28T02:53:20.876Z,78.99
2019-04-28T02:55:51.447Z,78.67
2019-04-28T02:58:22.671Z,78.61
2019-04-28T03:01:06.729Z,77.75
2019-04-28T03:03:25.875Z,75.57
2019-04-28T03:05:56.601Z,75.86
2019-04-28T03:08:27.259Z,77.86
2019-04-28T03:11:00.618Z,78.80
2019-04-28T03:13:31.127Z,79.12
2019-04-28T03:16:02.331Z,79.74
2019-04-28T03:18:33.206Z,80.30
2019-04-28T03:21:04.596Z,80.44
2019-04-28T03:23:35.584Z,80.92
2019-04-28T03:26:24.841Z,81.18
2019-04-28T03:29:04.507Z,81.27
2019-04-28T03:32:15.934Z,81.26
2019-04-28T03:34:43.547Z,80.92
2019-04-28T03:37:14.242Z,81.05
2019-04-28T03:39:54.115Z,80.66
2019-04-28T03:42:24.817Z,80.77
2019-04-28T03:44:57.174Z,80.55
2019-04-28T03:47:30.852Z,80.33
2019-04-28T03:50:00.574Z,80.13
2019-04-28T03:52:31.906Z,79.89
2019-04-28T03:55:02.912Z,80.41
2019-04-28T03:57:33.621Z,80.32
2019-04-28T04:00:05.489Z,79.77
2019-04-28T04:02:35.988Z,77.85
2019-04-28T04:05:06.954Z,76.14
2019-04-28T04:07:42.580Z,75.48
2019-04-28T04:10:16.985Z,76.02
2019-04-28T04:12:52.333Z,77.53
2019-04-28T04:15:54.178Z,79.02
2019-04-28T04:18:31.063Z,79.26
2019-04-28T04:21:02.042Z,78.42
2019-04-28T04:23:32.834Z,77.65
2019-04-28T04:26:03.857Z,76.69
2019-04-28T04:28:34.472Z,75.52
2019-04-28T04:31:05.886Z,74.62
2019-04-28T04:33:36.370Z,73.55
2019-04-28T04:36:07.107Z,71.81
2019-04-28T04:38:40.151Z,70.31
2019-04-28T04:41:11.373Z,68.47
2019-04-28T04:43:42.042Z,64.73
2019-04-28T04:46:16.826Z,63.03
2019-04-28T04:48:50.568Z,61.96
2019-04-28T04:51:21.529Z,61.54
2019-04-28T04:53:52.879Z,60.12
2019-04-28T04:56:23.713Z,56.02
2019-04-28T04:58:54.608Z,55.73
2019-04-28T05:01:50.385Z,53.42
2019-04-28T05:04:29.603Z,52.64
2019-04-28T05:06:59.957Z,52.98
2019-04-28T05:09:31.217Z,54.09
2019-04-28T05:12:02.182Z,54.19
2019-04-28T05:14:32.819Z,57.22
2019-04-28T05:17:03.715Z,58.83
2019-04-28T05:19:34.582Z,58.72
2019-04-28T05:22:05.638Z,59.03
2019-04-28T05:24:46.271Z,58.54
2019-04-28T05:27:17.350Z,58.90
2019-04-28T05:29:51.189Z,58.47
2019-04-28T05:32:20.821Z,54.76
2019-04-28T05:34:52.954Z,53.11
2019-04-28T05:37:23.672Z,51.38
2019-04-28T05:39:54.457Z,50.75
2019-04-28T05:42:25.266Z,46.62
2019-04-28T05:44:59.803Z,46.97
2019-04-28T05:47:31.692Z,43.71
2019-04-28T05:50:21.412Z,41.87
2019-04-28T05:53:00.752Z,42.23
2019-04-28T05:55:50.162Z,43.44
2019-04-28T05:58:30.260Z,44.49
2019-04-28T06:01:20.410Z,45.19
2019-04-28T06:03:51.022Z,46.75
2019-04-28T06:06:23.457Z,48.25
2019-04-28T06:09:16.018Z,48.56
2019-04-28T06:11:46.684Z,46.09
2019-04-28T06:14:17.232Z,46.26
2019-04-28T06:16:48.079Z,46.02
2019-04-28T06:19:20.205Z,44.99
2019-04-28T06:21:50.874Z,44.71
2019-04-28T06:24:21.572Z,44.70
2019-04-28T06:26:52.400Z,44.15
2019-04-28T06:29:24.113Z,43.26
2019-04-28T06:31:55.053Z,44.25
2019-04-28T06:34:26.756Z,45.54
2019-04-28T06:36:58.294Z,43.74
2019-04-28T06:39:30.724Z,39.47
2019-04-28T06:42:02.223Z,38.06
2019-04-28T06:44:32.838Z,39.22
2019-04-28T06:47:03.724Z,41.75
2019-04-28T06:49:34.391Z,42.58
2019-04-28T06:52:05.253Z,44.37
2019-04-28T06:54:38.877Z,43.55
2019-04-28T06:57:10.528Z,41.00
2019-04-28T06:59:41.715Z,38.33
2019-04-28T07:02:12.542Z,36.61
2019-04-28T07:05:01.193Z,34.24
2019-04-28T07:07:22.538Z,33.03
2019-04-28T07:09:53.238Z,33.26
2019-04-28T07:12:23.761Z,32.58
2019-04-28T07:14:55.451Z,33.90
2019-04-28T07:17:26.226Z,35.30
2019-04-28T07:20:08.050Z,35.85
2019-04-28T07:22:38.817Z,36.35
2019-04-28T07:25:09.709Z,37.54
2019-04-28T07:27:40.661Z,39.77
2019-04-28T07:30:11.617Z,41.55
2019-04-28T07:32:43.428Z,42.34
2019-04-28T07:35:14.225Z,42.86
2019-04-28T07:37:46.012Z,43.17
2019-04-28T07:40:17.365Z,43.59
2019-04-28T07:42:48.055Z,44.85
2019-04-28T07:45:18.940Z,44.97
2019-04-28T07:47:49.989Z,44.81
2019-04-28T07:50:24.952Z,45.09
2019-04-28T07:53:01.874Z,44.78
2019-04-28T07:55:32.830Z,44.31
2019-04-28T07:58:03.706Z,44.15
2019-04-28T08:00:34.858Z,43.51
2019-04-28T08:03:05.641Z,42.95
2019-04-28T08:05:36.510Z,44.00
2019-04-28T08:08:07.504Z,43.67
2019-04-28T08:10:38.539Z,43.73
2019-04-28T08:13:09.430Z,43.10
2019-04-28T08:15:40.221Z,42.83
2019-04-28T08:18:10.799Z,42.92
2019-04-28T08:20:41.365Z,43.21
2019-04-28T08:23:13.623Z,42.99
2019-04-28T08:25:44.751Z,42.50
2019-04-28T08:28:15.726Z,42.74
2019-04-28T08:30:47.649Z,42.36
2019-04-28T08:33:37.330Z,42.77
2019-04-28T08:36:08.055Z,43.90
2019-04-28T08:38:38.743Z,44.01
2019-04-28T08:41:09.630Z,43.26
2019-04-28T08:43:40.541Z,43.78
2019-04-28T08:46:11.412Z,43.21
2019-04-28T08:48:42.312Z,43.06
2019-04-28T08:51:13.007Z,41.29
2019-04-28T08:53:43.921Z,41.32
2019-04-28T08:56:14.682Z,40.63
2019-04-28T08:58:45.512Z,40.95
2019-04-28T09:01:16.121Z,40.12
2019-04-28T09:03:46.579Z,41.03
2019-04-28T09:06:17.275Z,39.68
2019-04-28T09:08:47.785Z,39.53
2019-04-28T09:11:18.645Z,38.81
2019-04-28T09:13:52.461Z,37.90
2019-04-28T09:16:22.995Z,37.57
2019-04-28T09:18:53.701Z,37.45
2019-04-28T09:21:24.401Z,37.21
2019-04-28T09:23:56.606Z,37.64
2019-04-28T09:26:27.571Z,37.58
2019-04-28T09:28:59.342Z,37.55
2019-04-28T09:31:30.168Z,38.03
2019-04-28T09:34:00.940Z,38.21
2019-04-28T09:36:32.114Z,38.48
2019-04-28T09:39:06.412Z,39.13
2019-04-28T09:42:15.819Z,38.09
2019-04-28T09:44:46.676Z,38.22
2019-04-28T09:47:17.352Z,38.46
2019-04-28T09:49:48.253Z,37.60
2019-04-28T09:52:19.528Z,38.00
2019-04-28T09:54:51.166Z,37.93
2019-04-28T09:57:21.915Z,38.50
2019-04-28T09:59:52.534Z,38.30
2019-04-28T10:02:23.254Z,37.89
2019-04-28T10:04:53.924Z,38.35
2019-04-28T10:07:24.529Z,37.71
2019-04-28T10:09:55.515Z,37.31
2019-04-28T10:12:27.480Z,37.78
2019-04-28T10:14:58.686Z,36.50
2019-04-28T10:17:30.171Z,36.04
2019-04-28T10:20:00.983Z,36.77
2019-04-28T10:22:31.713Z,37.92
2019-04-28T10:25:02.882Z,37.56
2019-04-28T10:27:33.600Z,37.32
2019-04-28T10:30:04.795Z,37.06
2019-04-28T10:32:36.435Z,36.43
2019-04-28T10:35:07.630Z,35.51
2019-04-28T10:37:38.338Z,34.86
2019-04-28T10:40:19.094Z,35.78
2019-04-28T10:42:49.578Z,35.80
2019-04-28T10:45:23.340Z,35.99
2019-04-28T10:47:54.132Z,35.29
2019-04-28T10:50:25.164Z,35.37
2019-04-28T10:52:56.087Z,35.49
2019-04-28T10:55:26.590Z,34.56
2019-04-28T10:57:57.570Z,34.63
2019-04-28T11:00:30.641Z,34.47
2019-04-28T11:03:01.379Z,33.88
2019-04-28T11:05:39.422Z,35.33
2019-04-28T11:08:18.040Z,35.27
2019-04-28T11:10:48.684Z,39.85
2019-04-28T11:13:19.430Z,46.42
2019-04-28T11:15:51.251Z,49.25
2019-04-28T11:18:21.979Z,50.23
2019-04-28T11:20:52.730Z,52.01
2019-04-28T11:23:23.401Z,53.80
2019-04-28T11:25:54.165Z,55.33
2019-04-28T11:28:24.743Z,56.44
2019-04-28T11:30:55.699Z,54.96
2019-04-28T11:34:01.383Z,56.62
2019-04-28T11:36:31.966Z,59.37
2019-04-28T11:39:03.251Z,59.68
2019-04-28T11:41:33.997Z,59.89
2019-04-28T11:44:04.943Z,60.50
2019-04-28T11:46:35.547Z,58.96
2019-04-28T11:49:06.341Z,59.22
2019-04-28T11:51:37.336Z,59.36
2019-04-28T11:54:08.339Z,60.03
2019-04-28T11:56:41.570Z,60.00
2019-04-28T11:59:11.444Z,59.69
2019-04-28T12:01:42.416Z,60.98
2019-04-28T12:04:14.397Z,58.77
2019-04-28T12:06:45.121Z,59.05
2019-04-28T12:09:46.743Z,58.72
2019-04-28T12:12:26.104Z,59.71
2019-04-28T12:15:04.947Z,59.04
2019-04-28T12:17:46.638Z,58.55
2019-04-28T12:20:22.606Z,58.81
2019-04-28T12:22:53.247Z,58.51
2019-04-28T12:25:23.905Z,59.02
2019-04-28T12:27:56.114Z,59.42
2019-04-28T12:30:26.705Z,58.86
2019-04-28T12:32:57.555Z,57.92
2019-04-28T12:35:28.119Z,58.01
2019-04-28T12:37:58.806Z,58.22
2019-04-28T12:40:29.547Z,57.38
2019-04-28T12:43:00.138Z,57.18
2019-04-28T12:45:35.310Z,57.17
2019-04-28T12:48:03.471Z,55.43
2019-04-28T12:50:39.575Z,56.48
2019-04-28T12:53:11.440Z,57.32
2019-04-28T12:55:42.301Z,57.97
2019-04-28T12:58:13.038Z,58.38
2019-04-28T13:01:15.090Z,57.48
2019-04-28T13:04:01.890Z,56.98
2019-04-28T13:06:32.810Z,57.54
2019-04-28T13:09:04.229Z,58.21
2019-04-28T13:11:38.051Z,58.51
2019-04-28T13:14:08.585Z,57.80
2019-04-28T13:16:39.493Z,57.25
2019-04-28T13:19:10.199Z,56.24
2019-04-28T13:21:40.896Z,54.24
2019-04-28T13:24:12.797Z,52.33
2019-04-28T13:26:43.701Z,52.97
2019-04-28T13:29:14.581Z,52.37
2019-04-28T13:31:45.156Z,54.21
2019-04-28T13:34:18.151Z,51.89
2019-04-28T13:36:48.966Z,53.34
2019-04-28T13:39:26.603Z,53.62
2019-04-28T13:41:57.542Z,53.66
2019-04-28T13:44:46.054Z,53.59
2019-04-28T13:47:16.821Z,54.24
2019-04-28T13:49:53.773Z,54.55
2019-04-28T13:52:24.476Z,55.89
2019-04-28T13:55:00.839Z,56.10
2019-04-28T13:57:31.691Z,57.10
2019-04-28T14:00:04.426Z,58.17
2019-04-28T14:02:53.973Z,59.94
2019-04-28T14:05:42.816Z,59.99
2019-04-28T14:08:14.755Z,60.11
2019-04-28T14:10:45.386Z,58.75
2019-04-28T14:13:16.234Z,58.10
2019-04-28T14:15:48.601Z,57.63
2019-04-28T14:18:19.486Z,59.14
2019-04-28T14:20:50.083Z,59.22
2019-04-28T14:23:22.256Z,60.17
2019-04-28T14:25:53.078Z,60.90
2019-04-28T14:28:24.122Z,61.28
2019-04-28T14:30:54.829Z,62.09
2019-04-28T14:33:25.429Z,62.58
2019-04-28T14:35:56.000Z,62.46
2019-04-28T14:38:26.468Z,62.56
2019-04-28T14:41:17.146Z,63.53
2019-04-28T14:43:47.889Z,63.64
2019-04-28T14:46:20.273Z,65.06
2019-04-28T14:48:51.060Z,65.18
2019-04-28T14:51:22.000Z,64.48
2019-04-28T14:53:53.682Z,64.38
2019-04-28T14:56:24.816Z,65.27
2019-04-28T14:58:55.574Z,65.10
2019-04-28T15:01:48.351Z,63.93
2019-04-28T15:04:29.654Z,63.37
2019-04-28T15:07:04.889Z,63.18
2019-04-28T15:09:57.845Z,62.20
2019-04-28T15:12:28.462Z,61.47
2019-04-28T15:14:59.109Z,61.40
2019-04-28T15:17:30.057Z,60.60
2019-04-28T15:20:01.084Z,59.49
2019-04-28T15:22:34.462Z,59.39
2019-04-28T15:25:06.428Z,60.05
2019-04-28T15:27:37.475Z,59.46
2019-04-28T15:30:08.353Z,59.67
2019-04-28T15:32:39.334Z,59.64
2019-04-28T15:35:10.165Z,59.18
2019-04-28T15:37:42.279Z,58.53
2019-04-28T15:40:13.816Z,57.96
2019-04-28T15:42:44.705Z,57.98
2019-04-28T15:45:17.458Z,57.64
2019-04-28T15:47:48.175Z,57.29
2019-04-28T15:50:19.704Z,57.06
2019-04-28T15:52:51.873Z,55.52
2019-04-28T15:55:28.478Z,56.09
2019-04-28T15:58:00.822Z,55.88
2019-04-28T16:00:31.440Z,55.08
2019-04-28T16:03:02.116Z,54.74
2019-04-28T16:05:32.851Z,55.20
2019-04-28T16:08:04.763Z,55.09
2019-04-28T16:10:36.991Z,56.12
2019-04-28T16:13:08.598Z,56.88
2019-04-28T16:15:40.269Z,57.47
2019-04-28T16:18:10.998Z,57.31
2019-04-28T16:20:41.857Z,57.35
2019-04-28T16:23:12.388Z,57.35
2019-04-28T16:25:43.085Z,57.26
2019-04-28T16:28:13.939Z,57.32
2019-04-28T16:30:44.714Z,57.43
2019-04-28T16:33:16.577Z,57.26
2019-04-28T16:35:47.168Z,57.48
2019-04-28T16:38:19.071Z,58.04
2019-04-28T16:41:04.863Z,57.90
2019-04-28T16:43:57.742Z,57.99
2019-04-28T16:46:28.401Z,57.94
2019-04-28T16:48:59.270Z,57.99
2019-04-28T16:51:30.447Z,58.40
2019-04-28T16:54:01.580Z,59.62
2019-04-28T16:56:55.348Z,59.49
2019-04-28T16:59:51.309Z,59.52
2019-04-28T17:02:40.665Z,60.21
2019-04-28T17:05:12.431Z,61.50
2019-04-28T17:07:52.345Z,62.05
2019-04-28T17:10:15.734Z,62.62
2019-04-28T17:12:47.196Z,63.06
2019-04-28T17:15:17.962Z,63.34
2019-04-28T17:17:48.857Z,63.63
2019-04-28T17:20:20.339Z,63.85
2019-04-28T17:22:51.020Z,64.48
2019-04-28T17:25:21.840Z,65.36
2019-04-28T17:27:52.953Z,65.70
2019-04-28T17:30:23.739Z,66.23
2019-04-28T17:32:54.631Z,66.39
2019-04-28T17:35:25.636Z,66.52
2019-04-28T17:38:06.354Z,66.77
2019-04-28T17:40:30.086Z,67.00
2019-04-28T17:43:00.986Z,67.16
2019-04-28T17:45:33.744Z,67.39
2019-04-28T17:48:13.903Z,67.42
2019-04-28T17:50:45.389Z,67.32
2019-04-28T17:53:16.481Z,67.53
2019-04-28T17:55:47.264Z,67.61
2019-04-28T17:58:17.873Z,67.71
2019-04-28T18:01:11.593Z,67.81
2019-04-28T18:03:52.643Z,67.76
2019-04-28T18:06:24.747Z,67.64
2019-04-28T18:08:55.767Z,67.37
2019-04-28T18:11:26.816Z,67.17
2019-04-28T18:13:57.440Z,66.50
2019-04-28T18:16:53.147Z,66.10
2019-04-28T18:19:24.318Z,65.89
2019-04-28T18:21:55.105Z,65.16
2019-04-28T18:24:25.987Z,63.61
2019-04-28T18:26:56.907Z,61.00
2019-04-28T18:29:27.840Z,59.92
2019-04-28T18:32:35.435Z,58.96
2019-04-28T18:35:15.893Z,57.67
2019-04-28T18:38:03.982Z,56.35
2019-04-28T18:41:03.270Z,54.89
2019-04-28T18:43:52.838Z,55.53
2019-04-28T18:46:28.780Z,54.74
2019-04-28T18:49:01.152Z,55.57
2019-04-28T18:51:32.461Z,56.16
2019-04-28T18:54:03.335Z,56.36
2019-04-28T18:56:34.089Z,56.66
2019-04-28T18:59:04.806Z,57.04
2019-04-28T19:02:00.434Z,57.16
2019-04-28T19:04:31.298Z,57.44
2019-04-28T19:07:05.179Z,57.84
2019-04-28T19:09:59.412Z,57.02
2019-04-28T19:12:40.762Z,54.15
2019-04-28T19:15:40.175Z,54.00
2019-04-28T19:18:19.499Z,52.83
2019-04-28T19:20:50.506Z,53.30
2019-04-28T19:23:21.284Z,53.27
2019-04-28T19:25:51.939Z,52.56
2019-04-28T19:28:22.910Z,52.32
2019-04-28T19:30:53.729Z,52.34
2019-04-28T19:33:24.537Z,52.59
2019-04-28T19:35:55.621Z,52.46
2019-04-28T19:38:26.318Z,52.98
2019-04-28T19:40:59.357Z,55.84
2019-04-28T19:43:31.624Z,56.48
2019-04-28T19:46:05.347Z,56.30
2019-04-28T19:48:37.389Z,56.48
2019-04-28T19:51:11.761Z,56.93
2019-04-28T19:53:42.900Z,56.38
2019-04-28T19:56:24.295Z,56.32
2019-04-28T19:59:03.639Z,56.29
2019-04-28T20:01:34.485Z,55.43
2019-04-28T20:04:05.300Z,54.73
2019-04-28T20:06:36.292Z,53.71
2019-04-28T20:09:07.935Z,52.99
2019-04-28T20:11:38.822Z,52.67
2019-04-28T20:14:09.858Z,52.17
2019-04-28T20:16:41.911Z,52.42
2019-04-28T20:19:12.642Z,52.46
2019-04-28T20:21:43.438Z,52.63
2019-04-28T20:24:14.458Z,53.30
2019-04-28T20:26:45.290Z,54.25
2019-04-28T20:29:16.199Z,54.90
2019-04-28T20:31:46.955Z,54.73
2019-04-28T20:34:18.075Z,54.70
2019-04-28T20:37:08.446Z,55.54
2019-04-28T20:39:39.220Z,55.75
2019-04-28T20:42:27.338Z,55.38
2019-04-28T20:44:58.283Z,56.07
2019-04-28T20:47:28.954Z,56.34
2019-04-28T20:49:59.895Z,56.41
2019-04-28T20:52:31.552Z,56.78
2019-04-28T20:55:02.192Z,55.71
2019-04-28T20:57:32.830Z,55.04
2019-04-28T21:00:05.184Z,55.19
2019-04-28T21:02:35.978Z,54.99
2019-04-28T21:05:07.095Z,54.82
2019-04-28T21:07:37.923Z,54.43
2019-04-28T21:10:09.061Z,54.35
2019-04-28T21:12:40.982Z,54.06
2019-04-28T21:15:11.773Z,53.67
2019-04-28T21:17:42.619Z,53.94
2019-04-28T21:20:13.457Z,53.48
2019-04-28T21:22:45.535Z,53.37
2019-04-28T21:25:16.463Z,53.98
2019-04-28T21:27:46.992Z,54.24
2019-04-28T21:30:17.905Z,54.78
2019-04-28T21:32:49.085Z,54.74
2019-04-28T21:35:19.776Z,55.39
2019-04-28T21:37:51.099Z,54.92
2019-04-28T21:40:22.170Z,54.78
2019-04-28T21:43:11.717Z,54.52
2019-04-28T21:46:04.263Z,54.67
2019-04-28T21:48:41.433Z,54.72
2019-04-28T21:51:12.436Z,54.83
2019-04-28T21:53:43.236Z,55.16
2019-04-28T21:56:13.895Z,54.60
2019-04-28T21:58:45.106Z,53.20
2019-04-28T22:01:19.392Z,53.76
2019-04-28T22:03:50.048Z,52.96
2019-04-28T22:06:20.746Z,52.36
2019-04-28T22:08:51.503Z,52.00
2019-04-28T22:11:22.312Z,51.78
2019-04-28T22:13:52.987Z,51.95
2019-04-28T22:16:24.017Z,51.56
2019-04-28T22:18:54.751Z,51.77
2019-04-28T22:21:25.476Z,51.51
2019-04-28T22:24:24.389Z,51.09
2019-04-28T22:26:55.994Z,51.03
2019-04-28T22:29:27.419Z,50.87
2019-04-28T22:31:59.306Z,50.64
2019-04-28T22:34:29.869Z,50.42
2019-04-28T22:37:00.467Z,52.57
2019-04-28T22:39:31.400Z,53.18
2019-04-28T22:42:02.304Z,54.01
2019-04-28T22:44:32.926Z,54.67
2019-04-28T22:47:03.701Z,55.12
2019-04-28T22:49:34.284Z,55.67
2019-04-28T22:52:04.949Z,54.75
2019-04-28T22:54:54.837Z,53.98
2019-04-28T22:57:47.273Z,53.27
2019-04-28T23:00:38.383Z,53.23
2019-04-28T23:03:10.603Z,53.67
2019-04-28T23:05:41.684Z,53.27
2019-04-28T23:08:12.553Z,53.74
2019-04-28T23:10:44.482Z,54.22
2019-04-28T23:13:15.125Z,54.57
2019-04-28T23:15:45.721Z,55.57
2019-04-28T23:18:16.725Z,56.48
2019-04-28T23:20:50.381Z,56.83
2019-04-28T23:23:21.101Z,56.52
2019-04-28T23:25:51.956Z,57.42
2019-04-28T23:28:22.727Z,57.52
2019-04-28T23:30:53.480Z,57.45
2019-04-28T23:33:24.141Z,57.33
2019-04-28T23:35:54.951Z,56.66
2019-04-28T23:38:25.966Z,54.94
2019-04-28T23:41:07.291Z,54.25
2019-04-28T23:43:37.873Z,53.60
2019-04-28T23:46:08.369Z,53.18
2019-04-28T23:48:40.225Z,53.05
2019-04-28T23:51:29.019Z,53.15
2019-04-28T23:54:04.762Z,52.49
2019-04-28T23:56:35.711Z,52.18
2019-04-28T23:59:06.639Z,52.67
